Terminal Aerodrome Forecast
Issued by NWS Memphis, TN

Home | Current Version | Previous Version | Text Only | Print | Product List | Glossary On
Versions: 1 2 3 4 5 6 7 8 9 10 11 12 13 14 15 16 17 18 19 20
000
FTUS44 KMEG 221124
TAFJBR
TAF
KJBR 221124Z 2212/2312 VRB03KT 6SM BR OVC007
      TEMPO 2213/2216 4SM BR OVC012
     FM221600 11004KT P6SM BKN015
     FM221800 15006KT P6SM SCT030
     FM230000 19005KT P6SM SCT250
     FM230800 VRB03KT 3SM BR SCT010=

USA.gov is the U.S. government's official web portal to all federal, state and local government web resources and services.